Time;durP1;ratioP1;P1;durP2;ratioP2;P2;SDS_P1;SDS_P2;PMS_P1;PMS_P2;Temp;Humidity;BMP_temperature;BMP_pressure;BME280_temperature;BME280_humidity;BME280_pressure;Samples;Min_cycle;Max_cycle;Signal;HPM_P1;HPM_P2
2023/01/01 00:00:59;;;;;;;120.75;63.80;;;;;;;;;;10520337;28;20753;-77
2023/01/01 00:06:02;;;;;;;;;;;;;;;;;;10518675;28;20036;-76
2023/01/01 00:11:05;;;;;;;65.30;29.73;;;;;;;;;;10516815;28;19925;-75
2023/01/01 00:16:10;;;;;;;88.17;42.03;;;;;;;;;;10519658;28;20090;-75
2023/01/01 00:21:14;;;;;;;80.35;38.17;;;;;;;;;;10522276;28;20032;-76
2023/01/01 00:26:17;;;;;;;84.10;38.90;;;;;;;;;;10525106;28;20051;-76
2023/01/01 00:31:21;;;;;;;70.57;31.23;;;;;;;;;;10517643;28;20348;-75
2023/01/01 00:36:25;;;;;;;51.80;23.25;;;;;;;;;;10523537;28;20051;-76
2023/01/01 00:41:28;;;;;;;45.83;19.45;;;;;;;;;;10516452;28;20429;-76
2023/01/01 00:46:32;;;;;;;38.90;17.95;;;;;;;;;;10525545;28;20067;-76
2023/01/01 00:51:34;;;;;;;40.70;16.08;;;;;;;;;;10514914;28;20056;-78
2023/01/01 00:56:40;;;;;;;39.55;16.95;;;;;;;;;;10522190;28;20101;-75
2023/01/01 01:01:43;;;;;;;23.75;9.50;;;;;;;;;;10519066;28;20113;-77
2023/01/01 01:06:46;;;;;;;;;;;;;;;;;;10523832;28;20047;-76
2023/01/01 01:11:49;;;;;;;24.98;12.55;;;;;;;;;;10522530;28;19946;-75
2023/01/01 01:16:52;;;;;;;28.17;10.95;;;;;;;;;;10523708;28;20055;-76
2023/01/01 01:21:55;;;;;;;23.05;10.73;;;;;;;;;;10531002;28;20071;-75
2023/01/01 01:26:58;;;;;;;13.45;6.82;;;;;;;;;;10532140;28;20159;-75
2023/01/01 01:32:01;;;;;;;18.25;7.65;;;;;;;;;;10516126;28;20051;-75
2023/01/01 01:37:05;;;;;;;23.75;9.73;;;;;;;;;;10526612;28;20059;-75
2023/01/01 01:42:07;;;;;;;11.88;5.32;;;;;;;;;;10527855;28;20068;-76
2023/01/01 01:47:14;;;;;;;12.52;5.97;;;;;;;;;;10525540;28;20405;-75
2023/01/01 01:52:17;;;;;;;15.93;6.05;;;;;;;;;;10537803;28;20044;-76
2023/01/01 01:57:20;;;;;;;13.85;5.32;;;;;;;;;;10524508;28;20063;-75
2023/01/01 02:02:32;;;;;;;14.38;5.35;;;;;;;;;;10530195;28;20440;-75
2023/01/01 02:07:36;;;;;;;13.70;5.60;;;;;;;;;;10525941;28;20036;-75
2023/01/01 02:12:38;;;;;;;17.53;8.37;;;;;;;;;;10531374;28;20115;-76
2023/01/01 02:17:45;;;;;;;16.02;6.50;;;;;;;;;;10518186;28;20097;-76
2023/01/01 02:22:57;;;;;;;14.70;7.07;;;;;;;;;;10521952;28;20227;-74
2023/01/01 02:28:08;;;;;;;15.13;6.55;;;;;;;;;;10526321;28;20055;-74
2023/01/01 02:33:15;;;;;;;13.50;5.70;;;;;;;;;;10525517;28;20497;-75
2023/01/01 02:38:20;;;;;;;12.25;6.45;;;;;;;;;;10523697;28;20040;-76
2023/01/01 02:43:23;;;;;;;8.65;4.18;;;;;;;;;;10521139;28;20490;-74
2023/01/01 02:48:38;;;;;;;15.25;6.57;;;;;;;;;;10523576;28;20044;-75
2023/01/01 02:53:40;;;;;;;;;;;;;;;;;;10527062;28;20506;-75
2023/01/01 03:04:11;;;;;;;15.03;6.30;;;;;;;;;;10518835;28;20039;-75
2023/01/01 03:09:18;;;;;;;9.60;4.40;;;;;;;;;;10516103;28;20051;-75
2023/01/01 03:14:24;;;;;;;8.25;4.28;;;;;;;;;;10523468;28;20036;-75
2023/01/01 03:19:29;;;;;;;13.13;5.25;;;;;;;;;;10518917;28;20048;-77
2023/01/01 03:24:33;;;;;;;12.73;6.32;;;;;;;;;;10522859;28;20036;-76
2023/01/01 03:29:38;;;;;;;13.57;5.65;;;;;;;;;;10519840;28;20036;-75
2023/01/01 03:34:45;;;;;;;15.18;5.97;;;;;;;;;;10525777;28;20073;-77
2023/01/01 03:39:50;;;;;;;18.45;6.45;;;;;;;;;;10518309;28;20040;-77
2023/01/01 03:44:56;;;;;;;7.35;3.63;;;;;;;;;;10519020;28;20177;-75
2023/01/01 03:50:02;;;;;;;12.98;6.10;;;;;;;;;;10516814;28;20513;-76
2023/01/01 03:55:06;;;;;;;15.10;7.43;;;;;;;;;;10521570;28;20043;-75
2023/01/01 04:00:15;;;;;;;14.50;6.80;;;;;;;;;;10520857;28;20028;-76
2023/01/01 04:05:19;;;;;;;8.35;3.53;;;;;;;;;;10517977;28;20124;-74
2023/01/01 04:10:22;;;;;;;15.38;6.15;;;;;;;;;;10511571;28;20413;-74
2023/01/01 04:15:27;;;;;;;11.23;5.68;;;;;;;;;;10517739;28;20036;-75
2023/01/01 04:20:31;;;;;;;13.43;5.95;;;;;;;;;;10524057;28;20039;-74
2023/01/01 04:25:34;;;;;;;19.30;8.13;;;;;;;;;;10518458;28;20039;-76
2023/01/01 04:30:36;;;;;;;18.23;7.57;;;;;;;;;;10518325;28;20024;-76
2023/01/01 04:35:39;;;;;;;16.58;6.88;;;;;;;;;;10520780;28;20442;-76
2023/01/01 04:40:42;;;;;;;;;;;;;;;;;;10521484;28;20129;-77
2023/01/01 04:45:44;;;;;;;22.40;8.98;;;;;;;;;;10524814;28;19967;-76
2023/01/01 04:50:54;;;;;;;17.60;6.75;;;;;;;;;;10535626;28;20044;-76
2023/01/01 04:56:02;;;;;;;11.27;4.55;;;;;;;;;;10519897;28;20181;-76
2023/01/01 05:01:05;;;;;;;20.30;8.23;;;;;;;;;;10525405;28;20101;-76
2023/01/01 05:06:10;;;;;;;9.77;4.25;;;;;;;;;;10528596;28;20052;-76
2023/01/01 05:11:13;;;;;;;6.72;3.70;;;;;;;;;;10530414;28;20036;-76
2023/01/01 05:16:17;;;;;;;14.50;5.90;;;;;;;;;;10525010;28;20393;-77
2023/01/01 05:21:21;;;;;;;13.73;5.43;;;;;;;;;;10526972;28;20493;-76
2023/01/01 05:26:26;;;;;;;11.30;4.68;;;;;;;;;;10538796;28;20093;-76
2023/01/01 05:31:31;;;;;;;16.98;6.40;;;;;;;;;;10526104;28;20074;-74
2023/01/01 05:36:37;;;;;;;12.98;5.38;;;;;;;;;;10526947;28;20128;-75
2023/01/01 05:41:40;;;;;;;11.60;5.00;;;;;;;;;;10526733;28;20044;-75
2023/01/01 05:46:43;;;;;;;14.05;5.45;;;;;;;;;;10530426;28;20133;-76
2023/01/01 05:51:47;;;;;;;6.80;3.45;;;;;;;;;;10520910;28;20379;-76
2023/01/01 05:56:50;;;;;;;9.90;3.83;;;;;;;;;;10539507;28;20054;-75
2023/01/01 06:01:52;;;;;;;11.30;3.70;;;;;;;;;;10524064;28;20044;-75
2023/01/01 06:06:56;;;;;;;12.45;5.25;;;;;;;;;;10526222;28;20039;-75
2023/01/01 06:11:59;;;;;;;11.10;4.88;;;;;;;;;;10520786;28;20108;-76
2023/01/01 06:17:02;;;;;;;9.75;3.92;;;;;;;;;;10530383;28;20042;-75
2023/01/01 06:22:06;;;;;;;4.55;2.72;;;;;;;;;;10518621;28;20559;-76
2023/01/01 06:27:08;;;;;;;5.75;2.47;;;;;;;;;;10534491;28;20105;-76
2023/01/01 06:32:11;;;;;;;6.88;3.28;;;;;;;;;;10520931;28;20489;-76
2023/01/01 06:37:15;;;;;;;8.88;2.65;;;;;;;;;;10519362;28;20066;-76
2023/01/01 06:42:17;;;;;;;5.63;2.13;;;;;;;;;;10524381;28;20028;-76
2023/01/01 06:47:20;;;;;;;7.93;3.85;;;;;;;;;;10521231;28;20311;-76
2023/01/01 06:52:24;;;;;;;8.35;4.18;;;;;;;;;;10525469;28;20040;-76
2023/01/01 06:57:27;;;;;;;7.57;3.67;;;;;;;;;;10520520;28;20048;-75
2023/01/01 07:02:29;;;;;;;8.98;3.40;;;;;;;;;;10518489;28;20042;-76
2023/01/01 07:07:34;;;;;;;5.23;2.57;;;;;;;;;;10527778;28;20074;-76
2023/01/01 07:12:37;;;;;;;6.00;3.53;;;;;;;;;;10516789;28;20071;-76
2023/01/01 07:17:40;;;;;;;8.27;3.80;;;;;;;;;;10527486;28;20054;-76
2023/01/01 07:22:44;;;;;;;8.88;3.97;;;;;;;;;;10524683;28;20048;-76
2023/01/01 07:27:47;;;;;;;13.70;6.03;;;;;;;;;;10517533;28;20378;-76
2023/01/01 07:32:54;;;;;;;6.80;2.95;;;;;;;;;;10522215;28;20485;-75
2023/01/01 07:37:58;;;;;;;9.43;3.40;;;;;;;;;;10517630;28;20047;-75
2023/01/01 07:43:00;;;;;;;7.35;2.92;;;;;;;;;;10524361;28;20044;-75
2023/01/01 07:48:03;;;;;;;6.70;3.38;;;;;;;;;;10524260;28;20571;-76
2023/01/01 07:53:07;;;;;;;7.90;3.33;;;;;;;;;;10517758;28;20036;-77
2023/01/01 07:58:11;;;;;;;7.57;3.70;;;;;;;;;;10530924;28;20040;-76
2023/01/01 08:03:13;;;;;;;5.07;3.17;;;;;;;;;;10514771;28;20451;-74
2023/01/01 08:08:18;;;;;;;7.18;2.80;;;;;;;;;;10514261;28;20482;-74
2023/01/01 08:13:20;;;;;;;6.80;3.50;;;;;;;;;;10514807;28;20071;-74
2023/01/01 08:18:23;;;;;;;7.05;3.55;;;;;;;;;;10523833;28;20112;-76
2023/01/01 08:23:27;;;;;;;5.10;2.63;;;;;;;;;;10524316;28;20046;-75
2023/01/01 08:28:31;;;;;;;5.63;2.70;;;;;;;;;;10516085;28;20044;-76
2023/01/01 08:33:34;;;;;;;7.13;2.85;;;;;;;;;;10520429;28;20523;-76
2023/01/01 08:38:38;;;;;;;5.03;2.60;;;;;;;;;;10519107;28;20530;-76
2023/01/01 08:43:40;;;;;;;6.03;3.10;;;;;;;;;;10510469;28;20105;-77
2023/01/01 08:48:43;;;;;;;6.30;2.43;;;;;;;;;;10521349;28;20401;-75
2023/01/01 08:53:46;;;;;;;4.33;2.70;;;;;;;;;;10515794;28;20391;-76
2023/01/01 08:58:53;;;;;;;5.35;2.70;;;;;;;;;;10523689;28;20314;-77
2023/01/01 09:04:03;;;;;;;5.72;3.03;;;;;;;;;;10520661;28;20125;-76
2023/01/01 09:09:05;;;;;;;;;;;;;;;;;;10513354;28;20496;-76
2023/01/01 09:14:09;;;;;;;3.77;2.40;;;;;;;;;;10518198;28;19924;-75
2023/01/01 09:19:12;;;;;;;5.88;2.65;;;;;;;;;;10519810;28;20039;-76
2023/01/01 09:24:14;;;;;;;6.18;2.80;;;;;;;;;;10516826;28;20052;-77
2023/01/01 09:29:19;;;;;;;4.20;2.72;;;;;;;;;;10517378;28;20048;-78
2023/01/01 09:34:22;;;;;;;4.53;3.03;;;;;;;;;;10523616;28;20032;-77
2023/01/01 09:39:25;;;;;;;4.43;2.58;;;;;;;;;;10523936;28;20470;-75
2023/01/01 09:44:35;;;;;;;4.97;3.08;;;;;;;;;;10522871;28;20035;-76
2023/01/01 09:49:39;;;;;;;5.30;2.92;;;;;;;;;;10531067;28;20048;-76
2023/01/01 09:54:44;;;;;;;4.68;3.13;;;;;;;;;;10525513;28;20641;-76
2023/01/01 09:59:49;;;;;;;5.60;3.05;;;;;;;;;;10518443;28;20044;-76
2023/01/01 10:04:58;;;;;;;4.82;3.28;;;;;;;;;;10508781;28;20024;-76
2023/01/01 10:10:06;;;;;;;5.18;3.22;;;;;;;;;;10517858;28;20061;-76
2023/01/01 10:15:13;;;;;;;5.85;3.13;;;;;;;;;;10529142;28;20044;-76
2023/01/01 10:20:18;;;;;;;2.33;2.13;;;;;;;;;;10520369;28;20044;-75
2023/01/01 10:25:22;;;;;;;3.85;2.47;;;;;;;;;;10523917;28;20126;-76
2023/01/01 10:30:27;;;;;;;3.75;2.28;;;;;;;;;;10522757;28;20142;-76
2023/01/01 10:35:34;;;;;;;3.63;2.70;;;;;;;;;;10526011;28;20066;-76
2023/01/01 10:40:37;;;;;;;4.03;2.70;;;;;;;;;;10518806;28;20047;-76
2023/01/01 10:45:43;;;;;;;4.05;2.50;;;;;;;;;;10524598;28;20063;-76
2023/01/01 10:50:48;;;;;;;3.90;2.83;;;;;;;;;;10511483;28;20469;-75
2023/01/01 10:55:51;;;;;;;3.47;2.60;;;;;;;;;;10525439;28;20231;-76
2023/01/01 11:01:01;;;;;;;4.38;2.80;;;;;;;;;;10523750;28;20185;-75
2023/01/01 11:06:06;;;;;;;3.13;2.27;;;;;;;;;;10545746;27;20106;-76
2023/01/01 11:11:19;;;;;;;3.63;2.38;;;;;;;;;;10517288;28;20043;-74
2023/01/01 11:16:24;;;;;;;5.15;3.50;;;;;;;;;;10520188;28;20048;-75
2023/01/01 11:21:26;;;;;;;6.10;3.90;;;;;;;;;;10522446;28;20543;-76
2023/01/01 11:26:29;;;;;;;6.60;5.93;;;;;;;;;;10521324;28;20538;-76
2023/01/01 11:31:36;;;;;;;3.35;2.85;;;;;;;;;;10521885;28;20047;-75
2023/01/01 11:36:38;;;;;;;3.55;2.40;;;;;;;;;;10514555;28;20316;-76
2023/01/01 11:41:43;;;;;;;4.65;2.80;;;;;;;;;;10526587;28;20136;-76
2023/01/01 11:46:47;;;;;;;3.97;1.88;;;;;;;;;;10525725;28;20044;-76
2023/01/01 11:51:50;;;;;;;2.63;1.70;;;;;;;;;;10514407;28;20120;-76
2023/01/01 11:56:54;;;;;;;3.45;2.55;;;;;;;;;;10516748;28;20040;-76
2023/01/01 12:01:59;;;;;;;2.70;2.22;;;;;;;;;;10520729;28;20044;-76
2023/01/01 12:07:05;;;;;;;2.58;2.20;;;;;;;;;;10524923;28;20048;-76
2023/01/01 12:12:10;;;;;;;2.72;2.38;;;;;;;;;;10522647;28;20127;-76
2023/01/01 12:17:17;;;;;;;2.60;2.00;;;;;;;;;;10525596;28;20431;-76
2023/01/01 12:22:20;;;;;;;4.88;2.63;;;;;;;;;;10519115;28;20040;-77
2023/01/01 12:27:30;;;;;;;3.25;1.80;;;;;;;;;;10513351;28;20044;-76
2023/01/01 12:32:40;;;;;;;2.08;1.83;;;;;;;;;;10514224;28;20039;-76
2023/01/01 12:37:46;;;;;;;2.05;1.73;;;;;;;;;;10516166;28;20416;-77
2023/01/01 12:42:54;;;;;;;2.58;1.95;;;;;;;;;;10513739;28;20109;-76
2023/01/01 12:48:03;;;;;;;2.65;1.45;;;;;;;;;;10519499;28;20056;-76
2023/01/01 12:53:17;;;;;;;1.88;1.75;;;;;;;;;;10519593;28;20145;-78
2023/01/01 12:58:21;;;;;;;1.70;1.60;;;;;;;;;;10517378;28;20089;-75
2023/01/01 13:03:27;;;;;;;2.72;1.77;;;;;;;;;;10520405;28;20035;-74
2023/01/01 13:08:30;;;;;;;4.00;1.88;;;;;;;;;;10517457;28;20509;-76
2023/01/01 13:13:33;;;;;;;2.30;1.90;;;;;;;;;;10519959;28;20047;-75
2023/01/01 13:18:38;;;;;;;3.33;1.83;;;;;;;;;;10520678;28;20125;-75
2023/01/01 13:23:47;;;;;;;2.15;1.70;;;;;;;;;;10522911;28;20070;-75
2023/01/01 13:29:22;;;;;;;1.77;1.60;;;;;;;;;;10527173;28;20048;-76
2023/01/01 13:34:37;;;;;;;2.85;2.08;;;;;;;;;;10526029;28;20097;-75
2023/01/01 13:39:54;;;;;;;1.90;1.55;;;;;;;;;;10526275;28;20079;-77
2023/01/01 13:44:57;;;;;;;3.80;1.20;;;;;;;;;;10523481;28;20051;-76
2023/01/01 13:50:09;;;;;;;2.92;1.30;;;;;;;;;;10509756;28;20072;-77
2023/01/01 13:55:27;;;;;;;4.95;3.20;;;;;;;;;;10525720;28;20051;-76
2023/01/01 14:00:32;;;;;;;2.50;1.38;;;;;;;;;;10515396;28;20089;-76
2023/01/01 14:05:38;;;;;;;1.83;0.75;;;;;;;;;;10532726;28;20047;-74
2023/01/01 14:10:40;;;;;;;1.38;0.88;;;;;;;;;;10520579;28;20405;-75
2023/01/01 14:15:50;;;;;;;2.27;1.30;;;;;;;;;;10530282;28;20044;-75
2023/01/01 14:20:54;;;;;;;2.42;1.25;;;;;;;;;;10530933;28;20062;-76
2023/01/01 14:25:57;;;;;;;3.22;1.10;;;;;;;;;;10523277;28;20044;-75
2023/01/01 14:31:01;;;;;;;3.03;1.38;;;;;;;;;;10517254;28;20121;-74
2023/01/01 14:36:19;;;;;;;2.47;1.40;;;;;;;;;;10526518;28;20051;-75
2023/01/01 14:41:25;;;;;;;5.07;1.50;;;;;;;;;;10525735;28;20098;-75
2023/01/01 14:46:28;;;;;;;2.17;1.33;;;;;;;;;;10519093;28;20165;-74
2023/01/01 14:51:33;;;;;;;4.70;1.83;;;;;;;;;;10522777;28;20119;-74
2023/01/01 14:56:42;;;;;;;3.55;1.20;;;;;;;;;;10525087;28;20062;-76
2023/01/01 15:01:45;;;;;;;2.45;1.02;;;;;;;;;;10514218;28;20505;-76
2023/01/01 15:06:54;;;;;;;5.18;1.73;;;;;;;;;;10524404;28;20074;-75
2023/01/01 15:11:57;;;;;;;4.88;1.60;;;;;;;;;;10525167;28;20148;-74
2023/01/01 15:17:01;;;;;;;3.22;1.85;;;;;;;;;;10524215;28;20753;-76
2023/01/01 15:22:03;;;;;;;;;;;;;;;;;;10522582;28;20618;-74
2023/01/01 15:27:20;;;;;;;5.78;2.53;;;;;;;;;;10520133;28;19928;-75
2023/01/01 15:32:25;;;;;;;5.20;2.10;;;;;;;;;;10517239;28;20104;-75
2023/01/01 15:37:30;;;;;;;4.43;2.20;;;;;;;;;;10520254;28;20052;-75
2023/01/01 15:42:35;;;;;;;7.10;2.88;;;;;;;;;;10521213;28;20101;-75
2023/01/01 15:47:38;;;;;;;6.07;2.35;;;;;;;;;;10529028;28;20446;-75
2023/01/01 15:52:43;;;;;;;4.63;2.43;;;;;;;;;;10525501;28;20040;-75
2023/01/01 15:57:47;;;;;;;4.10;2.20;;;;;;;;;;10521844;28;20055;-75
2023/01/01 16:02:51;;;;;;;4.72;2.92;;;;;;;;;;10521862;28;20040;-74
2023/01/01 16:07:58;;;;;;;7.78;2.65;;;;;;;;;;10530360;28;20044;-75
2023/01/01 16:13:02;;;;;;;8.27;3.35;;;;;;;;;;10527333;28;20543;-75
2023/01/01 16:18:05;;;;;;;;;;;;;;;;;;10523867;28;20147;-74
2023/01/01 16:23:08;;;;;;;8.00;2.65;;;;;;;;;;10525707;28;19959;-75
2023/01/01 16:28:13;;;;;;;3.85;2.22;;;;;;;;;;10527428;28;20056;-75
2023/01/01 16:33:17;;;;;;;4.75;2.22;;;;;;;;;;10524018;28;20069;-75
2023/01/01 16:38:19;;;;;;;;;;;;;;;;;;10516504;28;20181;-74
2023/01/01 16:43:23;;;;;;;3.90;2.00;;;;;;;;;;10525979;28;19924;-75
2023/01/01 16:48:26;;;;;;;;;;;;;;;;;;10528661;28;20040;-75
2023/01/01 16:53:28;;;;;;;4.97;2.20;;;;;;;;;;10516951;28;20374;-74
2023/01/01 16:58:32;;;;;;;2.85;1.75;;;;;;;;;;10527689;28;20501;-76
2023/01/01 17:03:54;;;;;;;6.90;2.40;;;;;;;;;;10525869;28;20032;-76
2023/01/01 17:08:58;;;;;;;6.70;2.20;;;;;;;;;;10522891;28;20074;-76
2023/01/01 17:14:02;;;;;;;4.43;2.00;;;;;;;;;;10527615;28;20044;-75
2023/01/01 17:19:05;;;;;;;;;;;;;;;;;;10518652;28;20525;-74
2023/01/01 17:24:23;;;;;;;4.07;1.70;;;;;;;;;;10518940;28;20336;-75
2023/01/01 17:29:27;;;;;;;6.43;2.80;;;;;;;;;;10528451;28;20145;-75
2023/01/01 17:34:29;;;;;;;6.65;2.58;;;;;;;;;;10522967;28;20036;-77
2023/01/01 17:39:32;;;;;;;5.20;2.17;;;;;;;;;;10516466;28;20497;-74
2023/01/01 17:44:36;;;;;;;2.50;1.55;;;;;;;;;;10519599;28;20032;-74
2023/01/01 17:49:40;;;;;;;5.72;2.08;;;;;;;;;;10525081;28;20044;-76
2023/01/01 17:54:42;;;;;;;4.13;2.25;;;;;;;;;;10523178;28;20536;-76
2023/01/01 17:59:46;;;;;;;6.93;1.95;;;;;;;;;;10529230;28;20398;-77
2023/01/01 18:04:49;;;;;;;5.55;1.90;;;;;;;;;;10529205;28;20032;-77
2023/01/01 18:09:52;;;;;;;4.65;1.77;;;;;;;;;;10528004;28;20044;-75
2023/01/01 18:14:56;;;;;;;1.98;1.23;;;;;;;;;;10533443;28;20060;-74
2023/01/01 18:19:58;;;;;;;2.92;1.27;;;;;;;;;;10527262;28;20060;-75
2023/01/01 18:25:01;;;;;;;4.15;1.88;;;;;;;;;;10525209;28;20064;-75
2023/01/01 18:30:05;;;;;;;1.92;1.27;;;;;;;;;;10520120;28;20045;-74
2023/01/01 18:35:08;;;;;;;4.00;1.80;;;;;;;;;;10525544;28;20574;-76
2023/01/01 18:40:12;;;;;;;3.90;2.03;;;;;;;;;;10527017;28;20048;-75
2023/01/01 18:45:14;;;;;;;;;;;;;;;;;;10522661;28;20109;-74
2023/01/01 18:50:24;;;;;;;2.97;1.50;;;;;;;;;;10529707;28;20386;-75
2023/01/01 18:55:27;;;;;;;3.88;2.08;;;;;;;;;;10530460;28;20117;-74
2023/01/01 19:00:31;;;;;;;4.10;2.30;;;;;;;;;;10517576;28;20055;-75
2023/01/01 19:05:36;;;;;;;3.47;1.45;;;;;;;;;;10528321;28;20032;-75
2023/01/01 19:10:39;;;;;;;6.80;1.75;;;;;;;;;;10524784;28;20045;-75
2023/01/01 19:15:43;;;;;;;2.92;1.70;;;;;;;;;;10528987;28;20567;-75
2023/01/01 19:20:46;;;;;;;;;;;;;;;;;;10526402;28;20044;-74
2023/01/01 19:25:50;;;;;;;3.53;1.73;;;;;;;;;;10520180;28;20389;-75
2023/01/01 19:30:53;;;;;;;6.43;2.22;;;;;;;;;;10526873;28;20123;-76
2023/01/01 19:35:56;;;;;;;5.65;2.88;;;;;;;;;;10525915;28;20036;-76
2023/01/01 19:41:00;;;;;;;6.57;2.47;;;;;;;;;;10526252;28;20040;-77
2023/01/01 19:46:02;;;;;;;3.13;1.90;;;;;;;;;;10528850;28;20497;-75
2023/01/01 19:51:05;;;;;;;4.18;2.22;;;;;;;;;;10528632;28;20473;-74
2023/01/01 19:56:09;;;;;;;4.00;1.80;;;;;;;;;;10533650;28;20056;-75
2023/01/01 20:01:12;;;;;;;5.00;2.75;;;;;;;;;;10523222;28;20056;-75
2023/01/01 20:06:15;;;;;;;3.23;1.80;;;;;;;;;;10522643;28;20042;-75
2023/01/01 20:11:19;;;;;;;4.05;1.65;;;;;;;;;;10522507;28;20059;-76
2023/01/01 20:16:22;;;;;;;3.47;1.42;;;;;;;;;;10527729;28;20037;-75
2023/01/01 20:26:45;;;;;;;5.50;2.00;;;;;;;;;;10524725;28;20048;-76
2023/01/01 20:31:49;;;;;;;4.00;1.98;;;;;;;;;;10527717;28;20109;-76
2023/01/01 20:42:13;;;;;;;5.55;2.00;;;;;;;;;;10522884;28;20040;-76
2023/01/01 20:47:16;;;;;;;3.03;1.33;;;;;;;;;;10530480;28;20070;-77
2023/01/01 20:52:18;;;;;;;2.55;1.60;;;;;;;;;;10532464;28;20055;-77
2023/01/01 20:57:22;;;;;;;4.15;2.28;;;;;;;;;;10522367;28;20037;-77
2023/01/01 21:02:25;;;;;;;4.43;2.33;;;;;;;;;;10526198;28;20039;-76
2023/01/01 21:07:28;;;;;;;5.18;2.35;;;;;;;;;;10527391;28;20046;-77
2023/01/01 21:12:32;;;;;;;4.25;2.30;;;;;;;;;;10537279;28;20032;-74
2023/01/01 21:17:34;;;;;;;7.65;2.63;;;;;;;;;;10520992;28;20044;-76
2023/01/01 21:22:38;;;;;;;5.43;2.58;;;;;;;;;;10519435;28;20058;-74
2023/01/01 21:27:42;;;;;;;7.20;3.20;;;;;;;;;;10532107;28;20374;-76
2023/01/01 21:32:46;;;;;;;7.22;2.95;;;;;;;;;;10529248;28;20048;-76
2023/01/01 21:37:50;;;;;;;5.93;2.72;;;;;;;;;;10529862;28;20044;-77
2023/01/01 21:42:54;;;;;;;7.97;2.83;;;;;;;;;;10530653;28;20576;-76
2023/01/01 21:47:58;;;;;;;7.93;3.00;;;;;;;;;;10528187;28;20101;-76
2023/01/01 21:53:02;;;;;;;9.00;3.15;;;;;;;;;;10526931;28;20497;-76
2023/01/01 22:03:27;;;;;;;5.15;2.58;;;;;;;;;;10524672;28;20221;-77
2023/01/01 22:08:30;;;;;;;8.88;3.05;;;;;;;;;;10526257;28;20548;-76
2023/01/01 22:13:35;;;;;;;6.45;2.17;;;;;;;;;;10523163;28;20040;-76
2023/01/01 22:18:38;;;;;;;11.02;4.03;;;;;;;;;;10530254;28;20032;-75
2023/01/01 22:23:42;;;;;;;5.93;2.70;;;;;;;;;;10529546;28;20088;-76
2023/01/01 22:28:47;;;;;;;8.97;2.90;;;;;;;;;;10526157;28;20047;-75
2023/01/01 22:33:51;;;;;;;7.68;3.40;;;;;;;;;;10528110;28;20052;-75
2023/01/01 22:38:55;;;;;;;8.63;3.45;;;;;;;;;;10526650;28;20064;-74
2023/01/01 22:44:00;;;;;;;3.40;1.67;;;;;;;;;;10522135;28;20086;-75
2023/01/01 22:49:10;;;;;;;10.07;3.50;;;;;;;;;;10526706;28;20043;-74
2023/01/01 22:54:13;;;;;;;7.55;3.17;;;;;;;;;;10519817;28;20048;-75
2023/01/01 22:59:17;;;;;;;10.23;3.00;;;;;;;;;;10523290;27;20043;-74
2023/01/01 23:04:20;;;;;;;7.07;3.15;;;;;;;;;;10523560;28;20056;-74
2023/01/01 23:09:23;;;;;;;8.05;2.90;;;;;;;;;;10532308;28;20024;-75
2023/01/01 23:19:47;;;;;;;6.40;2.70;;;;;;;;;;10526596;28;20290;-75
2023/01/01 23:24:50;;;;;;;5.78;2.90;;;;;;;;;;10530202;28;20066;-72
2023/01/01 23:29:54;;;;;;;7.47;2.72;;;;;;;;;;10526809;28;20067;-74
2023/01/01 23:34:57;;;;;;;7.90;3.05;;;;;;;;;;10523415;28;20040;-75
2023/01/01 23:39:59;;;;;;;7.75;2.88;;;;;;;;;;10528043;28;20044;-75
2023/01/01 23:45:03;;;;;;;7.55;2.22;;;;;;;;;;10529707;28;20035;-74
2023/01/01 23:50:06;;;;;;;;;;;;;;;;;;10518877;28;20068;-75
2023/01/01 23:55:09;;;;;;;7.93;2.10;;;;;;;;;;10524302;28;20000;-75
